createdAt,value
2024-03-24T00:00:08.918Z,85
2024-03-24T00:01:20.903Z,86
2024-03-24T00:02:32.934Z,86
2024-03-24T00:03:44.955Z,86
2024-03-24T00:04:56.938Z,86
2024-03-24T00:06:08.913Z,86
2024-03-24T00:07:20.909Z,86
2024-03-24T00:08:32.924Z,86
2024-03-24T00:09:44.918Z,86
2024-03-24T00:10:56.908Z,86
2024-03-24T00:12:08.924Z,86
2024-03-24T00:13:20.912Z,86
2024-03-24T00:14:32.946Z,86
2024-03-24T00:15:44.903Z,86
2024-03-24T00:16:56.931Z,86
2024-03-24T00:18:08.919Z,86
2024-03-24T00:19:20.901Z,86
2024-03-24T00:20:32.930Z,86
2024-03-24T00:21:44.913Z,86
2024-03-24T00:22:56.971Z,86
2024-03-24T00:24:08.910Z,86
2024-03-24T00:25:20.956Z,86
2024-03-24T00:26:32.943Z,86
2024-03-24T00:27:44.923Z,86
2024-03-24T00:28:56.920Z,86
2024-03-24T00:30:08.992Z,85
2024-03-24T00:31:20.939Z,85
2024-03-24T00:32:32.982Z,86
2024-03-24T00:33:44.915Z,86
2024-03-24T00:34:56.920Z,86
2024-03-24T00:36:08.971Z,86
2024-03-24T00:37:20.965Z,86
2024-03-24T00:38:32.930Z,86
2024-03-24T00:39:45.566Z,86
2024-03-24T00:40:56.962Z,86
2024-03-24T00:42:08.925Z,86
2024-03-24T00:43:20.923Z,86
2024-03-24T00:44:32.969Z,86
2024-03-24T00:45:44.928Z,85
2024-03-24T00:46:56.980Z,86
2024-03-24T00:48:08.938Z,86
2024-03-24T00:49:20.968Z,86
2024-03-24T00:50:32.939Z,86
2024-03-24T00:51:45.324Z,86
2024-03-24T00:52:57.310Z,85
2024-03-24T00:54:09.296Z,85
2024-03-24T00:55:21.323Z,85
2024-03-24T00:56:33.336Z,85
2024-03-24T00:57:45.316Z,85
2024-03-24T00:58:57.346Z,86
2024-03-24T01:00:09.348Z,85
2024-03-24T01:01:21.314Z,85
2024-03-24T01:02:33.307Z,85
2024-03-24T01:03:45.321Z,86
2024-03-24T01:04:57.344Z,86
2024-03-24T01:06:09.328Z,86
2024-03-24T01:08:33.306Z,85
2024-03-24T01:09:45.360Z,85
2024-03-24T01:10:57.350Z,85
2024-03-24T01:12:09.349Z,85
2024-03-24T01:13:21.355Z,85
2024-03-24T01:14:33.339Z,86
2024-03-24T01:15:45.320Z,86
2024-03-24T01:16:57.332Z,85
2024-03-24T01:18:09.349Z,85
2024-03-24T01:19:21.417Z,85
2024-03-24T01:20:33.365Z,86
2024-03-24T01:21:45.339Z,86
2024-03-24T01:22:57.353Z,86
2024-03-24T01:24:09.326Z,86
2024-03-24T01:25:21.366Z,86
2024-03-24T01:26:33.456Z,86
2024-03-24T01:27:45.355Z,86
2024-03-24T01:28:57.360Z,86
2024-03-24T01:30:09.367Z,86
2024-03-24T01:31:21.363Z,86
2024-03-24T01:32:33.371Z,86
2024-03-24T01:33:45.363Z,86
2024-03-24T01:34:57.330Z,86
2024-03-24T01:36:09.345Z,86
2024-03-24T01:37:21.336Z,86
2024-03-24T01:38:33.366Z,86
2024-03-24T01:39:45.344Z,86
2024-03-24T01:40:57.331Z,86
2024-03-24T01:42:09.359Z,86
2024-03-24T01:43:21.335Z,86
2024-03-24T01:44:33.352Z,86
2024-03-24T01:45:45.342Z,85
2024-03-24T01:46:57.390Z,85
2024-03-24T01:48:09.386Z,86
2024-03-24T01:49:21.396Z,86
2024-03-24T01:50:33.355Z,85
2024-03-24T01:51:45.754Z,86
2024-03-24T01:52:57.753Z,86
2024-03-24T01:54:09.756Z,85
2024-03-24T01:55:21.724Z,85
2024-03-24T01:56:33.753Z,85
2024-03-24T01:57:45.744Z,85
2024-03-24T01:58:57.726Z,85
2024-03-24T02:00:09.739Z,86
2024-03-24T02:01:21.737Z,86
2024-03-24T02:02:33.739Z,86
2024-03-24T02:03:45.759Z,86
2024-03-24T02:04:57.758Z,85
2024-03-24T02:06:09.758Z,85
2024-03-24T02:07:21.758Z,85
2024-03-24T02:08:33.764Z,85
2024-03-24T02:09:45.765Z,86
2024-03-24T02:10:57.769Z,85
2024-03-24T02:12:09.741Z,85
2024-03-24T02:13:21.765Z,85
2024-03-24T02:14:33.744Z,85
2024-03-24T02:15:45.762Z,85
2024-03-24T02:16:57.778Z,85
2024-03-24T02:18:09.747Z,85
2024-03-24T02:19:21.746Z,85
2024-03-24T02:20:33.765Z,85
2024-03-24T02:21:45.770Z,85
2024-03-24T02:22:57.734Z,85
2024-03-24T02:24:09.776Z,85
2024-03-24T02:25:21.754Z,85
2024-03-24T02:26:33.747Z,85
2024-03-24T02:27:45.765Z,85
2024-03-24T02:28:57.767Z,85
2024-03-24T02:30:09.787Z,84
2024-03-24T02:31:21.762Z,84
2024-03-24T02:32:33.760Z,84
2024-03-24T02:33:45.756Z,84
2024-03-24T02:34:57.773Z,84
2024-03-24T02:36:09.734Z,84
2024-03-24T02:37:21.755Z,85
2024-03-24T02:38:33.776Z,84
2024-03-24T02:39:45.774Z,84
2024-03-24T02:40:57.753Z,85
2024-03-24T02:42:09.777Z,84
2024-03-24T02:43:21.757Z,84
2024-03-24T02:44:33.774Z,84
2024-03-24T02:45:45.754Z,84
2024-03-24T02:46:57.808Z,85
2024-03-24T02:48:09.941Z,84
2024-03-24T02:49:21.755Z,85
2024-03-24T02:50:33.792Z,84
2024-03-24T02:52:58.164Z,84
2024-03-24T02:54:10.203Z,85
2024-03-24T02:55:22.149Z,84
2024-03-24T02:56:34.151Z,84
2024-03-24T02:57:46.148Z,84
2024-03-24T02:58:58.160Z,84
2024-03-24T03:00:10.168Z,84
2024-03-24T03:01:22.150Z,84
2024-03-24T03:02:34.166Z,85
2024-03-24T03:03:46.145Z,84
2024-03-24T03:04:58.169Z,84
2024-03-24T03:06:10.191Z,84
2024-03-24T03:07:22.160Z,83
2024-03-24T03:08:34.146Z,83
2024-03-24T03:09:46.231Z,83
2024-03-24T03:10:58.183Z,83
2024-03-24T03:12:10.145Z,83
2024-03-24T03:13:22.172Z,83
2024-03-24T03:14:34.165Z,83
2024-03-24T03:15:46.163Z,83
2024-03-24T03:16:58.175Z,83
2024-03-24T03:18:10.187Z,83
2024-03-24T03:19:22.211Z,83
2024-03-24T03:20:34.167Z,83
2024-03-24T03:21:46.224Z,83
2024-03-24T03:22:58.184Z,83
2024-03-24T03:24:10.266Z,83
2024-03-24T03:25:22.178Z,83
2024-03-24T03:26:34.181Z,83
2024-03-24T03:27:46.191Z,83
2024-03-24T03:28:58.183Z,83
2024-03-24T03:30:10.197Z,83
2024-03-24T03:31:22.143Z,83
2024-03-24T03:32:34.184Z,84
2024-03-24T03:33:46.173Z,84
2024-03-24T03:34:58.178Z,84
2024-03-24T03:36:10.168Z,85
2024-03-24T03:37:22.217Z,85
2024-03-24T03:38:34.182Z,86
2024-03-24T03:39:46.164Z,85
2024-03-24T03:40:58.179Z,86
2024-03-24T03:42:10.177Z,87
2024-03-24T03:43:22.176Z,87
2024-03-24T03:44:34.156Z,87
2024-03-24T03:45:46.208Z,88
2024-03-24T03:46:58.192Z,88
2024-03-24T03:48:10.192Z,88
2024-03-24T03:49:22.189Z,88
2024-03-24T03:50:34.212Z,88
2024-03-24T03:51:46.470Z,89
2024-03-24T03:52:58.479Z,89
2024-03-24T03:54:10.487Z,88
2024-03-24T03:55:22.470Z,88
2024-03-24T03:56:34.499Z,88
2024-03-24T03:57:46.517Z,89
2024-03-24T03:58:58.492Z,89
2024-03-24T04:00:10.472Z,89
2024-03-24T04:01:22.495Z,89
2024-03-24T04:02:34.483Z,90
2024-03-24T04:03:46.484Z,89
2024-03-24T04:04:58.495Z,89
2024-03-24T04:06:10.495Z,89
2024-03-24T04:07:22.510Z,89
2024-03-24T04:08:34.502Z,89
2024-03-24T04:09:46.548Z,89
2024-03-24T04:10:58.536Z,89
2024-03-24T04:12:10.507Z,89
2024-03-24T04:13:22.501Z,90
2024-03-24T04:14:34.483Z,90
2024-03-24T04:15:46.546Z,90
2024-03-24T04:16:58.480Z,90
2024-03-24T04:18:10.501Z,90
2024-03-24T04:19:22.490Z,90
2024-03-24T04:20:34.521Z,89
2024-03-24T04:21:46.496Z,90
2024-03-24T04:22:58.526Z,90
2024-03-24T04:24:10.497Z,90
2024-03-24T04:25:22.507Z,90
2024-03-24T04:26:34.532Z,91
2024-03-24T04:27:46.519Z,91
2024-03-24T04:28:58.501Z,91
2024-03-24T04:30:10.520Z,90
2024-03-24T04:31:22.502Z,90
2024-03-24T04:32:34.558Z,90
2024-03-24T04:33:46.530Z,91
2024-03-24T04:34:58.538Z,91
2024-03-24T04:36:10.512Z,91
2024-03-24T04:37:22.519Z,90
2024-03-24T04:38:34.537Z,90
2024-03-24T04:39:46.542Z,90
2024-03-24T04:40:58.542Z,91
2024-03-24T04:42:10.564Z,91
2024-03-24T04:43:22.538Z,90
2024-03-24T04:44:34.525Z,90
2024-03-24T04:45:46.520Z,91
2024-03-24T04:46:58.534Z,91
2024-03-24T04:48:10.532Z,91
2024-03-24T04:49:22.514Z,91
2024-03-24T04:50:34.526Z,90
2024-03-24T04:51:46.849Z,91
2024-03-24T04:52:58.865Z,90
2024-03-24T04:54:10.836Z,90
2024-03-24T04:55:22.854Z,90
2024-03-24T04:56:34.821Z,90
2024-03-24T04:57:46.861Z,90
2024-03-24T04:58:58.863Z,89
2024-03-24T05:00:10.823Z,90
2024-03-24T05:01:22.862Z,90
2024-03-24T05:02:34.855Z,90
2024-03-24T05:03:46.850Z,90
2024-03-24T05:04:58.837Z,90
2024-03-24T05:06:10.882Z,90
2024-03-24T05:07:22.848Z,89
2024-03-24T05:08:34.863Z,89
2024-03-24T05:09:46.857Z,89
2024-03-24T05:10:58.845Z,90
2024-03-24T05:12:10.847Z,89
2024-03-24T05:13:22.864Z,90
2024-03-24T05:14:34.848Z,90
2024-03-24T05:15:46.866Z,90
2024-03-24T05:16:58.895Z,90
2024-03-24T05:18:10.846Z,89
2024-03-24T05:19:22.847Z,89
2024-03-24T05:20:35.014Z,90
2024-03-24T05:21:46.864Z,90
2024-03-24T05:22:58.851Z,90
2024-03-24T05:24:10.838Z,90
2024-03-24T05:25:22.834Z,90
2024-03-24T05:26:34.877Z,90
2024-03-24T05:27:46.875Z,91
2024-03-24T05:28:58.942Z,90
2024-03-24T05:30:10.911Z,90
2024-03-24T05:31:22.887Z,90
2024-03-24T05:32:34.875Z,90
2024-03-24T05:33:46.896Z,90
2024-03-24T05:34:58.869Z,90
2024-03-24T05:36:10.900Z,90
2024-03-24T05:37:22.858Z,90
2024-03-24T05:38:34.870Z,90
2024-03-24T05:39:46.867Z,90
2024-03-24T05:40:58.872Z,90
2024-03-24T05:42:10.848Z,90
2024-03-24T05:43:22.854Z,90
2024-03-24T05:44:34.862Z,90
2024-03-24T05:45:46.873Z,90
2024-03-24T05:46:58.907Z,89
2024-03-24T05:48:10.869Z,90
2024-03-24T05:49:22.908Z,90
2024-03-24T05:50:34.862Z,89
2024-03-24T05:51:47.244Z,90
2024-03-24T05:52:59.258Z,90
2024-03-24T05:54:11.239Z,90
2024-03-24T05:55:23.246Z,90
2024-03-24T05:56:35.266Z,90
2024-03-24T05:57:47.241Z,90
2024-03-24T05:58:59.249Z,90
2024-03-24T06:00:11.255Z,90
2024-03-24T06:01:23.280Z,90
2024-03-24T06:02:35.252Z,90
2024-03-24T06:03:47.268Z,90
2024-03-24T06:04:59.250Z,89
2024-03-24T06:06:11.257Z,89
2024-03-24T06:07:23.230Z,90
2024-03-24T06:08:35.276Z,90
2024-03-24T06:09:47.322Z,90
2024-03-24T06:10:59.256Z,90
2024-03-24T06:12:11.245Z,90
2024-03-24T06:13:23.287Z,89
2024-03-24T06:14:35.257Z,90
2024-03-24T06:15:47.252Z,90
2024-03-24T06:16:59.243Z,89
2024-03-24T06:18:11.289Z,89
2024-03-24T06:19:23.288Z,89
2024-03-24T06:20:35.291Z,90
2024-03-24T06:21:47.268Z,90
2024-03-24T06:22:59.255Z,89
2024-03-24T06:24:11.257Z,89
2024-03-24T06:25:23.444Z,89
2024-03-24T06:26:35.259Z,89
2024-03-24T06:27:47.274Z,89
2024-03-24T06:28:59.298Z,89
2024-03-24T06:30:11.261Z,90
2024-03-24T06:31:23.267Z,89
2024-03-24T06:32:35.250Z,90
2024-03-24T06:33:47.267Z,90
2024-03-24T06:34:59.317Z,89
2024-03-24T06:36:11.271Z,89
2024-03-24T06:37:23.286Z,89
2024-03-24T06:38:35.300Z,89
2024-03-24T06:39:47.284Z,89
2024-03-24T06:40:59.285Z,89
2024-03-24T06:42:11.272Z,89
2024-03-24T06:43:23.302Z,90
2024-03-24T06:44:35.265Z,89
2024-03-24T06:45:49.227Z,90
2024-03-24T06:46:59.294Z,90
2024-03-24T06:48:11.296Z,90
2024-03-24T06:49:23.270Z,90
2024-03-24T06:50:35.299Z,90
2024-03-24T06:51:47.584Z,90
2024-03-24T06:52:59.585Z,90
2024-03-24T06:54:11.628Z,90
2024-03-24T06:55:23.595Z,90
2024-03-24T06:56:35.603Z,90
2024-03-24T06:57:47.593Z,90
2024-03-24T06:58:59.581Z,89
2024-03-24T07:00:11.590Z,90
2024-03-24T07:01:23.590Z,90
2024-03-24T07:02:35.621Z,90
2024-03-24T07:03:47.631Z,90
2024-03-24T07:04:59.669Z,90
2024-03-24T07:06:11.595Z,90
2024-03-24T07:07:23.590Z,90
2024-03-24T07:08:35.605Z,91
2024-03-24T07:09:47.598Z,91
2024-03-24T07:10:59.622Z,90
2024-03-24T07:12:11.624Z,90
2024-03-24T07:13:23.624Z,91
2024-03-24T07:14:35.608Z,91
2024-03-24T07:15:49.070Z,90
2024-03-24T07:16:59.616Z,90
2024-03-24T07:18:11.749Z,90
2024-03-24T07:19:23.627Z,91
2024-03-24T07:20:35.624Z,90
2024-03-24T07:21:47.702Z,90
2024-03-24T07:22:59.629Z,91
2024-03-24T07:24:11.695Z,91
2024-03-24T07:25:23.669Z,91
2024-03-24T07:26:35.631Z,91
2024-03-24T07:27:47.636Z,91
2024-03-24T07:28:59.656Z,91
2024-03-24T07:30:11.587Z,91
2024-03-24T07:31:23.641Z,91
2024-03-24T07:32:35.607Z,91
2024-03-24T07:33:47.609Z,91
2024-03-24T07:34:59.641Z,91
2024-03-24T07:36:11.627Z,90
2024-03-24T07:37:23.631Z,90
2024-03-24T07:38:35.790Z,90
2024-03-24T07:39:47.632Z,91
2024-03-24T07:40:59.668Z,90
2024-03-24T07:42:11.614Z,91
2024-03-24T07:43:23.658Z,90
2024-03-24T07:44:35.634Z,90
2024-03-24T07:45:47.614Z,90
2024-03-24T07:46:59.627Z,89
2024-03-24T07:48:11.623Z,90
2024-03-24T07:49:23.630Z,90
2024-03-24T07:50:35.612Z,90
2024-03-24T07:51:47.931Z,89
2024-03-24T07:52:59.941Z,89
2024-03-24T07:54:12.259Z,89
2024-03-24T07:55:24.046Z,89
2024-03-24T07:56:35.965Z,89
2024-03-24T07:57:47.941Z,89
2024-03-24T07:58:59.949Z,89
2024-03-24T08:00:12.004Z,89
2024-03-24T08:01:23.959Z,88
2024-03-24T08:02:35.926Z,88
2024-03-24T08:03:47.950Z,88
2024-03-24T08:04:59.943Z,88
2024-03-24T08:06:11.974Z,87
2024-03-24T08:07:23.959Z,87
2024-03-24T08:08:35.962Z,87
2024-03-24T08:09:47.968Z,87
2024-03-24T08:11:00.056Z,88
2024-03-24T08:12:12.021Z,87
2024-03-24T08:13:23.999Z,88
2024-03-24T08:14:35.950Z,87
2024-03-24T08:15:47.934Z,87
2024-03-24T08:16:59.944Z,86
2024-03-24T08:18:11.942Z,86
2024-03-24T08:19:24.012Z,86
2024-03-24T08:20:35.961Z,86
2024-03-24T08:21:47.982Z,86
2024-03-24T08:22:59.937Z,86
2024-03-24T08:24:12.229Z,86
2024-03-24T08:25:23.964Z,87
2024-03-24T08:26:35.982Z,86
2024-03-24T08:27:48.012Z,86
2024-03-24T08:28:59.969Z,86
2024-03-24T08:30:12.085Z,86
2024-03-24T08:31:24.023Z,86
2024-03-24T08:32:35.991Z,87
2024-03-24T08:33:47.938Z,84
2024-03-24T08:34:59.946Z,84
2024-03-24T08:36:12.068Z,84
2024-03-24T08:37:23.991Z,85
2024-03-24T08:38:35.955Z,85
2024-03-24T08:39:47.969Z,85
2024-03-24T08:40:59.949Z,84
2024-03-24T08:42:12.077Z,85
2024-03-24T08:43:23.959Z,85
2024-03-24T08:44:35.975Z,84
2024-03-24T08:45:47.961Z,84
2024-03-24T08:46:59.977Z,85
2024-03-24T08:48:11.964Z,85
2024-03-24T08:49:23.971Z,85
2024-03-24T08:50:35.966Z,85
2024-03-24T08:51:48.289Z,84
2024-03-24T08:53:00.286Z,85
2024-03-24T08:54:12.385Z,85
2024-03-24T08:55:24.300Z,84
2024-03-24T08:56:36.310Z,84
2024-03-24T08:57:48.290Z,84
2024-03-24T08:59:00.284Z,84
2024-03-24T09:00:12.273Z,84
2024-03-24T09:01:24.294Z,83
2024-03-24T09:02:36.299Z,84
2024-03-24T09:03:48.297Z,84
2024-03-24T09:05:00.300Z,83
2024-03-24T09:06:12.286Z,83
2024-03-24T09:07:24.278Z,83
2024-03-24T09:08:36.315Z,83
2024-03-24T09:09:48.284Z,82
2024-03-24T09:11:00.320Z,84
2024-03-24T09:12:12.332Z,83
2024-03-24T09:13:24.315Z,83
2024-03-24T09:14:36.303Z,82
2024-03-24T09:15:48.299Z,82
2024-03-24T09:17:00.291Z,83
2024-03-24T09:18:12.313Z,84
2024-03-24T09:19:24.290Z,84
2024-03-24T09:20:36.286Z,84
2024-03-24T09:21:48.287Z,83
2024-03-24T09:23:00.291Z,84
2024-03-24T09:24:12.316Z,83
2024-03-24T09:25:24.285Z,84
2024-03-24T09:26:36.289Z,84
2024-03-24T09:27:48.278Z,84
2024-03-24T09:29:00.284Z,83
2024-03-24T09:30:12.294Z,83
2024-03-24T09:31:24.304Z,83
2024-03-24T09:32:36.312Z,82
2024-03-24T09:33:48.291Z,82
2024-03-24T09:35:05.503Z,82
2024-03-24T09:36:12.318Z,82
2024-03-24T09:37:24.316Z,82
2024-03-24T09:38:36.327Z,81
2024-03-24T09:39:48.327Z,82
2024-03-24T09:41:00.302Z,82
2024-03-24T09:42:12.297Z,81
2024-03-24T09:43:24.370Z,81
2024-03-24T09:44:37.016Z,82
2024-03-24T09:45:48.303Z,82
2024-03-24T09:47:00.327Z,81
2024-03-24T09:48:12.338Z,82
2024-03-24T09:49:24.333Z,81
2024-03-24T09:50:36.293Z,81
2024-03-24T09:51:48.686Z,81
2024-03-24T09:53:00.755Z,80
2024-03-24T09:54:12.670Z,80
2024-03-24T09:55:24.742Z,81
2024-03-24T09:56:36.682Z,80
2024-03-24T09:57:51.765Z,81
2024-03-24T09:59:00.713Z,81
2024-03-24T10:00:12.666Z,81
2024-03-24T10:01:24.674Z,80
2024-03-24T10:02:36.695Z,79
2024-03-24T10:03:48.706Z,80
2024-03-24T10:05:00.725Z,80
2024-03-24T10:06:12.706Z,79
2024-03-24T10:07:24.669Z,79
2024-03-24T10:08:36.689Z,79
2024-03-24T10:09:48.687Z,79
2024-03-24T10:11:00.715Z,79
2024-03-24T10:12:12.711Z,78
2024-03-24T10:13:24.786Z,77
2024-03-24T10:14:36.668Z,77
2024-03-24T10:15:48.710Z,78
2024-03-24T10:18:00.835Z,76
2024-03-24T10:19:12.680Z,77
2024-03-24T10:20:24.715Z,77
2024-03-24T10:21:48.686Z,76
2024-03-24T10:23:00.778Z,77
2024-03-24T10:24:24.732Z,77
2024-03-24T10:25:36.709Z,77
2024-03-24T10:26:48.680Z,77
2024-03-24T10:28:00.719Z,77
2024-03-24T10:29:12.675Z,78
2024-03-24T10:30:24.696Z,78
2024-03-24T10:31:36.677Z,77
2024-03-24T10:32:48.706Z,77
2024-03-24T10:34:00.776Z,77
2024-03-24T10:35:36.681Z,77
2024-03-24T10:36:48.698Z,76
2024-03-24T10:38:00.694Z,77
2024-03-24T10:39:00.722Z,77
2024-03-24T10:40:36.710Z,76
2024-03-24T10:41:48.692Z,75
2024-03-24T10:43:00.697Z,75
2024-03-24T10:44:12.700Z,75
2024-03-24T10:45:36.681Z,75
2024-03-24T10:46:48.682Z,75
2024-03-24T10:48:00.681Z,75
2024-03-24T10:49:12.708Z,75
2024-03-24T10:50:24.703Z,74
2024-03-24T10:51:37.081Z,74
2024-03-24T10:53:49.076Z,74
2024-03-24T10:55:01.060Z,75
2024-03-24T10:56:37.045Z,76
2024-03-24T10:57:49.058Z,75
2024-03-24T10:59:13.123Z,75
2024-03-24T11:00:25.058Z,75
2024-03-24T11:01:37.132Z,76
2024-03-24T11:02:49.082Z,76
2024-03-24T11:04:13.067Z,75
2024-03-24T11:05:37.092Z,77
2024-03-24T11:07:01.069Z,77
2024-03-24T11:09:01.122Z,78
2024-03-24T11:10:13.071Z,78
2024-03-24T11:12:37.102Z,78
2024-03-24T11:14:49.073Z,80
2024-03-24T11:16:13.075Z,80
2024-03-24T11:17:49.080Z,81
2024-03-24T11:19:13.084Z,81
2024-03-24T11:20:25.084Z,82
2024-03-24T11:21:37.074Z,82
2024-03-24T11:22:49.067Z,82
2024-03-24T11:24:01.081Z,82
2024-03-24T11:25:13.106Z,81
2024-03-24T11:26:25.094Z,81
2024-03-24T11:27:37.070Z,82
2024-03-24T11:29:49.582Z,82
2024-03-24T11:31:01.084Z,84
2024-03-24T11:32:13.099Z,84
2024-03-24T11:33:25.069Z,85
2024-03-24T11:34:37.067Z,84
2024-03-24T11:35:49.072Z,86
2024-03-24T11:37:01.116Z,87
2024-03-24T11:38:13.074Z,86
2024-03-24T11:39:25.109Z,87
2024-03-24T11:40:37.101Z,87
2024-03-24T11:41:49.100Z,88
2024-03-24T11:43:01.074Z,88
2024-03-24T11:44:13.147Z,88
2024-03-24T11:45:25.119Z,89
2024-03-24T11:46:37.071Z,87
2024-03-24T11:47:49.084Z,87
2024-03-24T11:49:01.191Z,88
2024-03-24T11:50:13.106Z,89
2024-03-24T11:51:25.447Z,89
2024-03-24T11:52:37.477Z,89
2024-03-24T11:53:49.543Z,89
2024-03-24T11:55:01.445Z,88
2024-03-24T11:56:37.439Z,89
2024-03-24T11:57:49.507Z,88
2024-03-24T11:59:01.477Z,87
2024-03-24T12:00:13.501Z,89
2024-03-24T12:01:25.506Z,88
2024-03-24T12:02:37.457Z,89
2024-03-24T12:03:49.505Z,88
2024-03-24T12:05:01.590Z,88
2024-03-24T12:06:13.488Z,88
2024-03-24T12:07:37.506Z,88
2024-03-24T12:08:49.480Z,87
2024-03-24T12:10:01.540Z,86
2024-03-24T12:11:13.463Z,87
2024-03-24T12:12:25.527Z,87
2024-03-24T12:14:01.545Z,87
2024-03-24T12:15:13.479Z,87
2024-03-24T12:16:25.464Z,86
2024-03-24T12:17:37.487Z,86
2024-03-24T12:19:01.480Z,86
2024-03-24T12:20:13.501Z,85
2024-03-24T12:21:49.488Z,84
2024-03-24T12:23:01.510Z,85
2024-03-24T12:25:13.489Z,86
2024-03-24T12:26:25.470Z,85
2024-03-24T12:27:37.497Z,85
2024-03-24T12:28:49.470Z,84
2024-03-24T12:30:01.479Z,85
2024-03-24T12:31:13.618Z,84
2024-03-24T12:32:25.493Z,84
2024-03-24T12:33:49.457Z,85
2024-03-24T12:35:01.545Z,85
2024-03-24T12:36:13.485Z,83
2024-03-24T12:37:25.490Z,84
2024-03-24T12:38:37.497Z,84
2024-03-24T12:39:49.484Z,84
2024-03-24T12:41:01.465Z,84
2024-03-24T12:42:13.578Z,83
2024-03-24T12:43:25.486Z,83
2024-03-24T12:44:37.474Z,83
2024-03-24T12:45:49.502Z,83
2024-03-24T12:47:01.493Z,83
2024-03-24T12:48:13.490Z,84
2024-03-24T12:49:38.421Z,84
2024-03-24T12:50:41.852Z,84
2024-03-24T12:53:01.885Z,84
2024-03-24T12:54:13.850Z,85
2024-03-24T12:55:25.850Z,85
2024-03-24T12:56:37.894Z,85
2024-03-24T12:57:49.870Z,85
2024-03-24T12:59:01.870Z,86
2024-03-24T13:00:13.880Z,87
2024-03-24T13:01:25.882Z,87
2024-03-24T13:02:37.891Z,87
2024-03-24T13:03:49.855Z,87
2024-03-24T13:05:01.889Z,87
2024-03-24T13:06:13.881Z,86
2024-03-24T13:07:25.869Z,87
2024-03-24T13:08:37.855Z,87
2024-03-24T13:09:49.873Z,87
2024-03-24T13:11:08.365Z,87
2024-03-24T13:12:13.871Z,86
2024-03-24T13:13:25.849Z,88
2024-03-24T13:14:37.882Z,87
2024-03-24T13:15:49.852Z,87
2024-03-24T13:17:01.882Z,87
2024-03-24T13:18:13.884Z,87
2024-03-24T13:19:25.877Z,86
2024-03-24T13:20:37.882Z,86
2024-03-24T13:21:49.854Z,87
2024-03-24T13:23:01.870Z,87
2024-03-24T13:24:13.878Z,87
2024-03-24T13:25:25.860Z,88
2024-03-24T13:26:37.896Z,87
2024-03-24T13:27:49.910Z,87
2024-03-24T13:29:01.857Z,87
2024-03-24T13:30:13.864Z,88
2024-03-24T13:31:25.888Z,87
2024-03-24T13:32:37.888Z,87
2024-03-24T13:33:49.893Z,87
2024-03-24T13:35:01.888Z,88
2024-03-24T13:36:13.894Z,87
2024-03-24T13:37:25.882Z,85
2024-03-24T13:38:37.866Z,86
2024-03-24T13:39:49.897Z,86
2024-03-24T13:41:01.866Z,86
2024-03-24T13:42:13.870Z,87
2024-03-24T13:43:25.916Z,87
2024-03-24T13:44:37.880Z,87
2024-03-24T13:45:49.878Z,86
2024-03-24T13:47:01.894Z,87
2024-03-24T13:48:13.882Z,87
2024-03-24T13:49:25.924Z,86
2024-03-24T13:50:37.896Z,87
2024-03-24T13:51:50.263Z,87
2024-03-24T13:53:02.301Z,86
2024-03-24T13:54:14.248Z,84
2024-03-24T13:55:26.283Z,84
2024-03-24T13:56:38.297Z,86
2024-03-24T13:57:50.279Z,86
2024-03-24T13:59:02.289Z,86
2024-03-24T14:00:14.246Z,85
2024-03-24T14:01:26.319Z,86
2024-03-24T14:02:38.267Z,86
2024-03-24T14:03:50.299Z,84
2024-03-24T14:05:02.257Z,84
2024-03-24T14:06:14.368Z,84
2024-03-24T14:07:26.282Z,85
2024-03-24T14:08:38.262Z,85
2024-03-24T14:10:02.412Z,85
2024-03-24T14:11:26.274Z,86
2024-03-24T14:12:38.291Z,87
2024-03-24T14:14:14.317Z,86
2024-03-24T14:15:26.270Z,84
2024-03-24T14:16:38.323Z,86
2024-03-24T14:17:50.312Z,86
2024-03-24T14:19:04.923Z,87
2024-03-24T14:20:14.272Z,87
2024-03-24T14:21:26.296Z,87
2024-03-24T14:22:38.287Z,87
2024-03-24T14:23:50.259Z,87
2024-03-24T14:25:14.361Z,87
2024-03-24T14:26:26.272Z,87
2024-03-24T14:27:38.287Z,87
2024-03-24T14:28:50.255Z,87
2024-03-24T14:30:02.271Z,88
2024-03-24T14:31:38.296Z,88
2024-03-24T14:32:50.506Z,88
2024-03-24T14:34:02.292Z,88
2024-03-24T14:35:14.265Z,88
2024-03-24T14:36:38.270Z,88
2024-03-24T14:37:50.285Z,88
2024-03-24T14:39:50.285Z,88
2024-03-24T14:41:02.258Z,88
2024-03-24T14:42:14.420Z,89
2024-03-24T14:43:26.450Z,89
2024-03-24T14:44:38.284Z,89
2024-03-24T14:45:50.299Z,89
2024-03-24T14:47:02.391Z,89
2024-03-24T14:48:14.285Z,89
2024-03-24T14:49:26.291Z,88
2024-03-24T14:50:26.428Z,89
2024-03-24T14:51:38.700Z,89
2024-03-24T14:52:50.640Z,88
2024-03-24T14:54:02.668Z,88
2024-03-24T14:55:14.677Z,89
2024-03-24T14:56:26.685Z,88
2024-03-24T14:57:38.670Z,88
2024-03-24T14:58:50.678Z,88
2024-03-24T15:00:02.686Z,89
2024-03-24T15:01:14.685Z,89
2024-03-24T15:02:26.643Z,88
2024-03-24T15:03:38.685Z,88
2024-03-24T15:04:50.696Z,87
2024-03-24T15:06:02.692Z,87
2024-03-24T15:07:14.697Z,87
2024-03-24T15:08:26.683Z,86
2024-03-24T15:09:38.663Z,87
2024-03-24T15:10:50.683Z,87
2024-03-24T15:12:02.658Z,86
2024-03-24T15:13:14.663Z,86
2024-03-24T15:14:26.677Z,86
2024-03-24T15:15:38.675Z,85
2024-03-24T15:18:02.767Z,86
2024-03-24T15:19:14.663Z,87
2024-03-24T15:20:26.675Z,87
2024-03-24T15:21:38.663Z,86
2024-03-24T15:22:50.684Z,88
2024-03-24T15:24:04.913Z,88
2024-03-24T15:25:14.679Z,88
2024-03-24T15:26:26.664Z,88
2024-03-24T15:27:38.668Z,88
2024-03-24T15:28:50.678Z,88
2024-03-24T15:30:03.727Z,88
2024-03-24T15:31:14.663Z,88
2024-03-24T15:32:26.677Z,88
2024-03-24T15:33:38.678Z,87
2024-03-24T15:34:50.676Z,88
2024-03-24T15:36:02.723Z,89
2024-03-24T15:37:14.713Z,88
2024-03-24T15:38:26.689Z,88
2024-03-24T15:39:38.704Z,88
2024-03-24T15:40:50.762Z,88
2024-03-24T15:42:02.717Z,89
2024-03-24T15:43:14.704Z,88
2024-03-24T15:44:26.698Z,89
2024-03-24T15:45:38.710Z,89
2024-03-24T15:46:50.686Z,89
2024-03-24T15:48:02.680Z,88
2024-03-24T15:49:14.672Z,88
2024-03-24T15:50:26.688Z,89
2024-03-24T15:51:39.015Z,88
2024-03-24T15:52:51.028Z,88
2024-03-24T15:54:02.985Z,89
2024-03-24T15:55:15.018Z,89
2024-03-24T15:56:27.046Z,88
2024-03-24T15:57:38.989Z,89
2024-03-24T15:58:51.014Z,88
2024-03-24T16:00:02.992Z,89
2024-03-24T16:01:14.996Z,89
2024-03-24T16:02:27.021Z,90
2024-03-24T16:03:38.991Z,89
2024-03-24T16:04:51.000Z,89
2024-03-24T16:06:03.005Z,89
2024-03-24T16:07:14.994Z,90
2024-03-24T16:08:26.993Z,91
2024-03-24T16:09:38.994Z,90
2024-03-24T16:10:51.004Z,90
2024-03-24T16:12:02.994Z,91
2024-03-24T16:13:15.019Z,91
2024-03-24T16:14:27.031Z,90
2024-03-24T16:15:39.019Z,90
2024-03-24T16:16:51.023Z,90
2024-03-24T16:18:03.048Z,91
2024-03-24T16:19:15.025Z,91
2024-03-24T16:20:27.024Z,91
2024-03-24T16:21:38.997Z,90
2024-03-24T16:22:51.035Z,91
2024-03-24T16:24:03.007Z,91
2024-03-24T16:25:15.001Z,90
2024-03-24T16:26:27.040Z,90
2024-03-24T16:27:39.004Z,89
2024-03-24T16:28:51.018Z,90
2024-03-24T16:30:03.050Z,90
2024-03-24T16:31:15.006Z,90
2024-03-24T16:32:27.044Z,90
2024-03-24T16:33:39.035Z,89
2024-03-24T16:34:51.014Z,90
2024-03-24T16:36:03.003Z,89
2024-03-24T16:37:15.026Z,89
2024-03-24T16:38:27.042Z,90
2024-03-24T16:39:39.024Z,90
2024-03-24T16:40:51.010Z,90
2024-03-24T16:42:02.998Z,91
2024-03-24T16:43:15.037Z,91
2024-03-24T16:44:27.057Z,91
2024-03-24T16:45:39.032Z,90
2024-03-24T16:46:51.025Z,90
2024-03-24T16:48:03.026Z,89
2024-03-24T16:49:15.024Z,90
2024-03-24T16:50:27.037Z,90
2024-03-24T16:51:39.399Z,91
2024-03-24T16:52:51.452Z,92
2024-03-24T16:54:03.392Z,92
2024-03-24T16:55:15.402Z,92
2024-03-24T16:56:27.502Z,91
2024-03-24T16:57:39.412Z,90
2024-03-24T16:59:03.427Z,91
2024-03-24T17:00:15.408Z,91
2024-03-24T17:01:27.440Z,90
2024-03-24T17:02:39.386Z,89
2024-03-24T17:03:51.420Z,89
2024-03-24T17:05:27.392Z,90
2024-03-24T17:06:39.397Z,89
2024-03-24T17:07:51.400Z,89
2024-03-24T17:09:03.399Z,90
2024-03-24T17:10:15.413Z,89
2024-03-24T17:11:27.443Z,89
2024-03-24T17:12:39.437Z,89
2024-03-24T17:13:51.403Z,89
2024-03-24T17:15:03.413Z,88
2024-03-24T17:16:27.456Z,89
2024-03-24T17:17:39.395Z,89
2024-03-24T17:18:51.462Z,88
2024-03-24T17:20:03.498Z,89
2024-03-24T17:21:15.444Z,89
2024-03-24T17:22:27.430Z,89
2024-03-24T17:23:39.425Z,89
2024-03-24T17:25:03.419Z,89
2024-03-24T17:26:15.421Z,90